sensor_id;sensor_type;location;lat;lon;timestamp;P1;durP1;ratioP1;P2;durP2;ratioP2
23506;SDS011;11930;53.076;18.250;2022-10-12T00:01:39;18.27;;;7.27;;
23506;SDS011;11930;53.076;18.250;2022-10-12T00:04:05;20.20;;;7.73;;
23506;SDS011;11930;53.076;18.250;2022-10-12T00:06:31;19.37;;;6.60;;
23506;SDS011;11930;53.076;18.250;2022-10-12T00:08:57;18.73;;;7.30;;
23506;SDS011;11930;53.076;18.250;2022-10-12T00:11:25;16.00;;;7.03;;
23506;SDS011;11930;53.076;18.250;2022-10-12T00:13:53;16.33;;;6.07;;
23506;SDS011;11930;53.076;18.250;2022-10-12T00:16:21;21.00;;;7.00;;
23506;SDS011;11930;53.076;18.250;2022-10-12T00:18:52;14.43;;;6.10;;
23506;SDS011;11930;53.076;18.250;2022-10-12T00:21:20;20.70;;;6.70;;
23506;SDS011;11930;53.076;18.250;2022-10-12T00:23:47;24.00;;;6.57;;
23506;SDS011;11930;53.076;18.250;2022-10-12T00:26:20;18.37;;;6.33;;
23506;SDS011;11930;53.076;18.250;2022-10-12T00:28:48;16.10;;;6.87;;
23506;SDS011;11930;53.076;18.250;2022-10-12T00:31:18;17.90;;;6.80;;
23506;SDS011;11930;53.076;18.250;2022-10-12T00:33:45;14.90;;;6.17;;
23506;SDS011;11930;53.076;18.250;2022-10-12T00:38:45;18.47;;;7.67;;
23506;SDS011;11930;53.076;18.250;2022-10-12T00:41:12;19.93;;;7.03;;
23506;SDS011;11930;53.076;18.250;2022-10-12T00:43:41;24.27;;;7.37;;
23506;SDS011;11930;53.076;18.250;2022-10-12T00:49:19;19.07;;;7.13;;
23506;SDS011;11930;53.076;18.250;2022-10-12T00:51:50;19.10;;;8.20;;
23506;SDS011;11930;53.076;18.250;2022-10-12T00:54:25;21.27;;;8.03;;
23506;SDS011;11930;53.076;18.250;2022-10-12T00:56:55;19.97;;;8.53;;
23506;SDS011;11930;53.076;18.250;2022-10-12T00:59:27;19.43;;;7.70;;
23506;SDS011;11930;53.076;18.250;2022-10-12T01:02:04;17.53;;;8.07;;
23506;SDS011;11930;53.076;18.250;2022-10-12T01:04:31;20.60;;;7.83;;
23506;SDS011;11930;53.076;18.250;2022-10-12T01:06:58;18.73;;;7.57;;
23506;SDS011;11930;53.076;18.250;2022-10-12T01:09:25;25.10;;;9.97;;
23506;SDS011;11930;53.076;18.250;2022-10-12T01:11:52;32.07;;;9.43;;
23506;SDS011;11930;53.076;18.250;2022-10-12T01:14:20;21.37;;;8.07;;
23506;SDS011;11930;53.076;18.250;2022-10-12T01:16:53;20.33;;;7.63;;
23506;SDS011;11930;53.076;18.250;2022-10-12T01:22:24;21.47;;;7.47;;
23506;SDS011;11930;53.076;18.250;2022-10-12T01:27:44;21.63;;;7.17;;
23506;SDS011;11930;53.076;18.250;2022-10-12T01:30:28;16.50;;;6.40;;
23506;SDS011;11930;53.076;18.250;2022-10-12T01:36:05;19.67;;;6.87;;
23506;SDS011;11930;53.076;18.250;2022-10-12T01:38:55;16.77;;;6.03;;
23506;SDS011;11930;53.076;18.250;2022-10-12T01:41:49;18.60;;;6.63;;
23506;SDS011;11930;53.076;18.250;2022-10-12T01:44:21;16.60;;;6.37;;
23506;SDS011;11930;53.076;18.250;2022-10-12T01:46:49;18.20;;;6.20;;
23506;SDS011;11930;53.076;18.250;2022-10-12T01:49:18;16.87;;;6.40;;
23506;SDS011;11930;53.076;18.250;2022-10-12T01:54:52;17.30;;;5.90;;
23506;SDS011;11930;53.076;18.250;2022-10-12T01:57:43;19.47;;;6.23;;
23506;SDS011;11930;53.076;18.250;2022-10-12T02:00:17;15.77;;;6.70;;
23506;SDS011;11930;53.076;18.250;2022-10-12T02:03:05;17.83;;;6.03;;
23506;SDS011;11930;53.076;18.250;2022-10-12T02:08:24;19.10;;;5.43;;
23506;SDS011;11930;53.076;18.250;2022-10-12T02:13:29;15.00;;;5.90;;
23506;SDS011;11930;53.076;18.250;2022-10-12T02:16:00;16.17;;;5.40;;
23506;SDS011;11930;53.076;18.250;2022-10-12T02:18:29;18.97;;;5.97;;
23506;SDS011;11930;53.076;18.250;2022-10-12T02:20:56;14.60;;;5.63;;
23506;SDS011;11930;53.076;18.250;2022-10-12T02:23:24;19.23;;;6.50;;
23506;SDS011;11930;53.076;18.250;2022-10-12T02:25:52;17.57;;;5.73;;
23506;SDS011;11930;53.076;18.250;2022-10-12T02:28:21;14.73;;;5.90;;
23506;SDS011;11930;53.076;18.250;2022-10-12T02:30:55;13.90;;;5.20;;
23506;SDS011;11930;53.076;18.250;2022-10-12T02:36:09;12.10;;;5.80;;
23506;SDS011;11930;53.076;18.250;2022-10-12T02:38:52;11.83;;;4.90;;
23506;SDS011;11930;53.076;18.250;2022-10-12T02:41:27;19.93;;;6.83;;
23506;SDS011;11930;53.076;18.250;2022-10-12T02:43:58;16.77;;;7.10;;
23506;SDS011;11930;53.076;18.250;2022-10-12T02:46:26;12.37;;;5.20;;
23506;SDS011;11930;53.076;18.250;2022-10-12T02:48:54;15.90;;;5.60;;
23506;SDS011;11930;53.076;18.250;2022-10-12T02:51:23;17.30;;;5.80;;
23506;SDS011;11930;53.076;18.250;2022-10-12T02:53:52;18.40;;;5.33;;
23506;SDS011;11930;53.076;18.250;2022-10-12T02:56:19;17.47;;;6.13;;
23506;SDS011;11930;53.076;18.250;2022-10-12T02:58:45;14.47;;;5.10;;
23506;SDS011;11930;53.076;18.250;2022-10-12T03:01:12;15.00;;;6.00;;
23506;SDS011;11930;53.076;18.250;2022-10-12T03:03:39;17.53;;;5.60;;
23506;SDS011;11930;53.076;18.250;2022-10-12T03:06:06;16.33;;;5.13;;
23506;SDS011;11930;53.076;18.250;2022-10-12T03:08:32;17.70;;;5.90;;
23506;SDS011;11930;53.076;18.250;2022-10-12T03:11:01;12.80;;;5.37;;
23506;SDS011;11930;53.076;18.250;2022-10-12T03:13:29;17.67;;;5.60;;
23506;SDS011;11930;53.076;18.250;2022-10-12T03:16:05;15.77;;;5.93;;
23506;SDS011;11930;53.076;18.250;2022-10-12T03:18:33;14.50;;;5.33;;
23506;SDS011;11930;53.076;18.250;2022-10-12T03:20:59;12.53;;;5.57;;
23506;SDS011;11930;53.076;18.250;2022-10-12T03:23:25;13.90;;;5.87;;
23506;SDS011;11930;53.076;18.250;2022-10-12T03:25:52;17.93;;;6.20;;
23506;SDS011;11930;53.076;18.250;2022-10-12T03:28:18;17.83;;;6.30;;
23506;SDS011;11930;53.076;18.250;2022-10-12T03:30:45;15.60;;;6.07;;
23506;SDS011;11930;53.076;18.250;2022-10-12T03:33:11;18.60;;;6.07;;
23506;SDS011;11930;53.076;18.250;2022-10-12T03:35:37;19.30;;;6.83;;
23506;SDS011;11930;53.076;18.250;2022-10-12T03:38:03;18.17;;;6.50;;
23506;SDS011;11930;53.076;18.250;2022-10-12T03:40:29;15.87;;;6.80;;
23506;SDS011;11930;53.076;18.250;2022-10-12T03:42:55;21.00;;;6.70;;
23506;SDS011;11930;53.076;18.250;2022-10-12T03:45:22;19.67;;;6.50;;
23506;SDS011;11930;53.076;18.250;2022-10-12T03:47:47;15.60;;;6.43;;
23506;SDS011;11930;53.076;18.250;2022-10-12T03:50:14;17.90;;;6.00;;
23506;SDS011;11930;53.076;18.250;2022-10-12T03:52:40;19.17;;;6.00;;
23506;SDS011;11930;53.076;18.250;2022-10-12T03:55:06;15.73;;;6.53;;
23506;SDS011;11930;53.076;18.250;2022-10-12T03:57:32;18.50;;;7.03;;
23506;SDS011;11930;53.076;18.250;2022-10-12T03:59:58;16.30;;;6.17;;
23506;SDS011;11930;53.076;18.250;2022-10-12T04:02:24;16.40;;;6.87;;
23506;SDS011;11930;53.076;18.250;2022-10-12T04:04:50;18.17;;;8.03;;
23506;SDS011;11930;53.076;18.250;2022-10-12T04:07:16;20.63;;;8.57;;
23506;SDS011;11930;53.076;18.250;2022-10-12T04:09:42;24.53;;;11.93;;
23506;SDS011;11930;53.076;18.250;2022-10-12T04:12:08;27.43;;;11.40;;
23506;SDS011;11930;53.076;18.250;2022-10-12T04:14:34;41.97;;;16.33;;
23506;SDS011;11930;53.076;18.250;2022-10-12T04:17:00;34.93;;;15.37;;
23506;SDS011;11930;53.076;18.250;2022-10-12T04:19:28;40.80;;;19.37;;
23506;SDS011;11930;53.076;18.250;2022-10-12T04:21:54;56.80;;;22.17;;
23506;SDS011;11930;53.076;18.250;2022-10-12T04:24:20;56.30;;;24.57;;
23506;SDS011;11930;53.076;18.250;2022-10-12T04:26:47;47.17;;;18.83;;
23506;SDS011;11930;53.076;18.250;2022-10-12T04:29:18;48.40;;;18.10;;
23506;SDS011;11930;53.076;18.250;2022-10-12T04:31:52;41.80;;;17.03;;
23506;SDS011;11930;53.076;18.250;2022-10-12T04:34:18;53.53;;;20.00;;
23506;SDS011;11930;53.076;18.250;2022-10-12T04:36:44;51.83;;;20.97;;
23506;SDS011;11930;53.076;18.250;2022-10-12T04:39:10;43.77;;;17.30;;
23506;SDS011;11930;53.076;18.250;2022-10-12T04:41:40;46.43;;;19.87;;
23506;SDS011;11930;53.076;18.250;2022-10-12T04:44:06;41.27;;;17.87;;
23506;SDS011;11930;53.076;18.250;2022-10-12T04:46:32;49.87;;;20.97;;
23506;SDS011;11930;53.076;18.250;2022-10-12T04:48:59;53.83;;;22.20;;
23506;SDS011;11930;53.076;18.250;2022-10-12T04:51:25;56.33;;;26.23;;
23506;SDS011;11930;53.076;18.250;2022-10-12T04:53:52;84.40;;;36.30;;
23506;SDS011;11930;53.076;18.250;2022-10-12T04:56:18;70.67;;;34.03;;
23506;SDS011;11930;53.076;18.250;2022-10-12T04:58:44;69.23;;;32.83;;
23506;SDS011;11930;53.076;18.250;2022-10-12T05:01:10;57.90;;;30.07;;
23506;SDS011;11930;53.076;18.250;2022-10-12T05:03:39;58.40;;;30.80;;
23506;SDS011;11930;53.076;18.250;2022-10-12T05:06:06;62.13;;;30.67;;
23506;SDS011;11930;53.076;18.250;2022-10-12T05:08:32;55.37;;;27.73;;
23506;SDS011;11930;53.076;18.250;2022-10-12T05:10:58;51.20;;;26.07;;
23506;SDS011;11930;53.076;18.250;2022-10-12T05:13:24;44.63;;;21.80;;
23506;SDS011;11930;53.076;18.250;2022-10-12T05:15:54;41.97;;;18.47;;
23506;SDS011;11930;53.076;18.250;2022-10-12T05:18:21;36.57;;;15.73;;
23506;SDS011;11930;53.076;18.250;2022-10-12T05:20:49;38.13;;;16.43;;
23506;SDS011;11930;53.076;18.250;2022-10-12T05:23:15;41.83;;;17.67;;
23506;SDS011;11930;53.076;18.250;2022-10-12T05:25:41;34.30;;;17.30;;
23506;SDS011;11930;53.076;18.250;2022-10-12T05:28:07;37.67;;;20.43;;
23506;SDS011;11930;53.076;18.250;2022-10-12T05:30:33;42.80;;;20.50;;
23506;SDS011;11930;53.076;18.250;2022-10-12T05:32:59;34.77;;;16.73;;
23506;SDS011;11930;53.076;18.250;2022-10-12T05:35:26;30.37;;;15.63;;
23506;SDS011;11930;53.076;18.250;2022-10-12T05:37:52;30.67;;;14.43;;
23506;SDS011;11930;53.076;18.250;2022-10-12T05:40:18;24.17;;;12.50;;
23506;SDS011;11930;53.076;18.250;2022-10-12T05:42:53;27.03;;;12.90;;
23506;SDS011;11930;53.076;18.250;2022-10-12T05:45:20;25.03;;;11.40;;
23506;SDS011;11930;53.076;18.250;2022-10-12T05:47:46;27.07;;;12.17;;
23506;SDS011;11930;53.076;18.250;2022-10-12T05:50:13;24.17;;;11.33;;
23506;SDS011;11930;53.076;18.250;2022-10-12T05:52:39;22.03;;;11.13;;
23506;SDS011;11930;53.076;18.250;2022-10-12T05:55:05;19.27;;;10.90;;
23506;SDS011;11930;53.076;18.250;2022-10-12T05:57:31;25.97;;;10.17;;
23506;SDS011;11930;53.076;18.250;2022-10-12T05:59:58;21.07;;;9.63;;
23506;SDS011;11930;53.076;18.250;2022-10-12T06:02:24;19.60;;;9.60;;
23506;SDS011;11930;53.076;18.250;2022-10-12T06:04:50;22.73;;;10.57;;
23506;SDS011;11930;53.076;18.250;2022-10-12T06:07:16;28.50;;;11.73;;
23506;SDS011;11930;53.076;18.250;2022-10-12T06:09:42;37.77;;;16.97;;
23506;SDS011;11930;53.076;18.250;2022-10-12T06:12:09;32.70;;;18.80;;
23506;SDS011;11930;53.076;18.250;2022-10-12T06:14:35;35.30;;;19.43;;
23506;SDS011;11930;53.076;18.250;2022-10-12T06:17:01;27.33;;;16.20;;
23506;SDS011;11930;53.076;18.250;2022-10-12T06:19:27;36.50;;;19.60;;
23506;SDS011;11930;53.076;18.250;2022-10-12T06:21:53;39.30;;;18.60;;
23506;SDS011;11930;53.076;18.250;2022-10-12T06:24:19;32.23;;;18.03;;
23506;SDS011;11930;53.076;18.250;2022-10-12T06:26:45;32.77;;;17.03;;
23506;SDS011;11930;53.076;18.250;2022-10-12T06:29:11;24.13;;;13.10;;
23506;SDS011;11930;53.076;18.250;2022-10-12T06:31:37;25.43;;;11.93;;
23506;SDS011;11930;53.076;18.250;2022-10-12T06:34:04;30.50;;;14.20;;
23506;SDS011;11930;53.076;18.250;2022-10-12T06:36:30;25.40;;;11.57;;
23506;SDS011;11930;53.076;18.250;2022-10-12T06:38:56;23.43;;;11.03;;
23506;SDS011;11930;53.076;18.250;2022-10-12T06:41:22;17.67;;;9.17;;
23506;SDS011;11930;53.076;18.250;2022-10-12T06:43:48;21.03;;;10.07;;
23506;SDS011;11930;53.076;18.250;2022-10-12T06:46:15;20.47;;;10.07;;
23506;SDS011;11930;53.076;18.250;2022-10-12T06:48:41;20.53;;;9.50;;
23506;SDS011;11930;53.076;18.250;2022-10-12T06:51:07;24.27;;;11.33;;
23506;SDS011;11930;53.076;18.250;2022-10-12T06:53:33;20.93;;;10.20;;
23506;SDS011;11930;53.076;18.250;2022-10-12T06:56:04;26.92;;;12.02;;
23506;SDS011;11930;53.076;18.250;2022-10-12T06:58:31;20.92;;;12.82;;
23506;SDS011;11930;53.076;18.250;2022-10-12T07:00:57;24.92;;;12.13;;
23506;SDS011;11930;53.076;18.250;2022-10-12T07:03:25;22.45;;;11.73;;
23506;SDS011;11930;53.076;18.250;2022-10-12T07:05:51;35.15;;;17.05;;
23506;SDS011;11930;53.076;18.250;2022-10-12T07:08:17;42.40;;;22.33;;
23506;SDS011;11930;53.076;18.250;2022-10-12T07:10:43;34.73;;;19.17;;
23506;SDS011;11930;53.076;18.250;2022-10-12T07:13:09;49.87;;;23.80;;
23506;SDS011;11930;53.076;18.250;2022-10-12T07:15:36;32.93;;;17.03;;
23506;SDS011;11930;53.076;18.250;2022-10-12T07:18:02;47.70;;;17.87;;
23506;SDS011;11930;53.076;18.250;2022-10-12T07:20:28;49.67;;;16.97;;
23506;SDS011;11930;53.076;18.250;2022-10-12T07:22:54;99.03;;;38.53;;
23506;SDS011;11930;53.076;18.250;2022-10-12T07:25:20;48.83;;;18.17;;
23506;SDS011;11930;53.076;18.250;2022-10-12T07:27:47;40.60;;;15.07;;
23506;SDS011;11930;53.076;18.250;2022-10-12T07:30:13;39.47;;;16.33;;
23506;SDS011;11930;53.076;18.250;2022-10-12T07:32:39;30.08;;;14.50;;
23506;SDS011;11930;53.076;18.250;2022-10-12T07:35:06;26.05;;;13.05;;
23506;SDS011;11930;53.076;18.250;2022-10-12T07:37:33;35.65;;;14.23;;
23506;SDS011;11930;53.076;18.250;2022-10-12T07:39:59;31.85;;;14.57;;
23506;SDS011;11930;53.076;18.250;2022-10-12T07:42:25;22.50;;;12.88;;
23506;SDS011;11930;53.076;18.250;2022-10-12T07:44:51;35.30;;;19.02;;
23506;SDS011;11930;53.076;18.250;2022-10-12T07:47:17;30.88;;;16.42;;
23506;SDS011;11930;53.076;18.250;2022-10-12T07:49:43;24.40;;;14.85;;
23506;SDS011;11930;53.076;18.250;2022-10-12T07:52:09;19.73;;;12.93;;
23506;SDS011;11930;53.076;18.250;2022-10-12T07:54:35;24.05;;;12.13;;
23506;SDS011;11930;53.076;18.250;2022-10-12T07:57:01;21.08;;;11.90;;
23506;SDS011;11930;53.076;18.250;2022-10-12T07:59:27;22.75;;;11.82;;
23506;SDS011;11930;53.076;18.250;2022-10-12T08:01:54;18.45;;;11.32;;
23506;SDS011;11930;53.076;18.250;2022-10-12T08:04:20;33.97;;;16.52;;
23506;SDS011;11930;53.076;18.250;2022-10-12T08:06:46;57.03;;;27.25;;
23506;SDS011;11930;53.076;18.250;2022-10-12T08:09:12;64.00;;;31.08;;
23506;SDS011;11930;53.076;18.250;2022-10-12T08:11:38;51.55;;;23.20;;
23506;SDS011;11930;53.076;18.250;2022-10-12T08:14:05;29.67;;;15.88;;
23506;SDS011;11930;53.076;18.250;2022-10-12T08:16:36;32.47;;;17.60;;
23506;SDS011;11930;53.076;18.250;2022-10-12T08:19:02;19.92;;;10.88;;
23506;SDS011;11930;53.076;18.250;2022-10-12T08:21:28;20.40;;;11.18;;
23506;SDS011;11930;53.076;18.250;2022-10-12T08:23:54;26.38;;;12.85;;
23506;SDS011;11930;53.076;18.250;2022-10-12T08:26:20;19.52;;;10.27;;
23506;SDS011;11930;53.076;18.250;2022-10-12T08:28:46;20.73;;;10.30;;
23506;SDS011;11930;53.076;18.250;2022-10-12T08:31:13;20.85;;;10.80;;
23506;SDS011;11930;53.076;18.250;2022-10-12T08:33:40;18.00;;;10.60;;
23506;SDS011;11930;53.076;18.250;2022-10-12T08:36:07;18.00;;;10.20;;
23506;SDS011;11930;53.076;18.250;2022-10-12T08:38:35;20.73;;;11.10;;
23506;SDS011;11930;53.076;18.250;2022-10-12T08:46:41;14.40;;;7.80;;
23506;SDS011;11930;53.076;18.250;2022-10-12T08:49:14;13.85;;;8.02;;
23506;SDS011;11930;53.076;18.250;2022-10-12T08:51:51;13.63;;;6.13;;
23506;SDS011;11930;53.076;18.250;2022-10-12T08:54:19;16.50;;;6.38;;
23506;SDS011;11930;53.076;18.250;2022-10-12T08:56:51;16.77;;;7.22;;
23506;SDS011;11930;53.076;18.250;2022-10-12T08:59:18;27.77;;;7.10;;
23506;SDS011;11930;53.076;18.250;2022-10-12T09:04:49;15.57;;;6.63;;
23506;SDS011;11930;53.076;18.250;2022-10-12T09:07:23;13.98;;;6.32;;
23506;SDS011;11930;53.076;18.250;2022-10-12T09:12:54;12.07;;;5.05;;
23506;SDS011;11930;53.076;18.250;2022-10-12T09:15:32;13.77;;;5.10;;
23506;SDS011;11930;53.076;18.250;2022-10-12T09:18:04;10.68;;;4.80;;
23506;SDS011;11930;53.076;18.250;2022-10-12T09:20:41;12.45;;;5.40;;
23506;SDS011;11930;53.076;18.250;2022-10-12T09:23:19;10.88;;;4.95;;
23506;SDS011;11930;53.076;18.250;2022-10-12T09:25:56;12.00;;;5.05;;
23506;SDS011;11930;53.076;18.250;2022-10-12T09:34:07;11.40;;;5.30;;
23506;SDS011;11930;53.076;18.250;2022-10-12T09:36:35;15.05;;;5.10;;
23506;SDS011;11930;53.076;18.250;2022-10-12T09:39:04;13.63;;;5.53;;
23506;SDS011;11930;53.076;18.250;2022-10-12T09:41:40;11.32;;;4.47;;
23506;SDS011;11930;53.076;18.250;2022-10-12T09:44:13;13.32;;;4.25;;
23506;SDS011;11930;53.076;18.250;2022-10-12T09:47:05;12.23;;;4.15;;
23506;SDS011;11930;53.076;18.250;2022-10-12T09:49:51;10.13;;;3.78;;
23506;SDS011;11930;53.076;18.250;2022-10-12T09:52:22;10.90;;;4.70;;
23506;SDS011;11930;53.076;18.250;2022-10-12T09:54:53;15.05;;;5.07;;
23506;SDS011;11930;53.076;18.250;2022-10-12T09:57:25;13.80;;;4.70;;
23506;SDS011;11930;53.076;18.250;2022-10-12T09:59:54;18.52;;;4.72;;
23506;SDS011;11930;53.076;18.250;2022-10-12T10:02:22;15.52;;;4.80;;
23506;SDS011;11930;53.076;18.250;2022-10-12T10:04:50;13.43;;;4.00;;
23506;SDS011;11930;53.076;18.250;2022-10-12T10:07:23;12.13;;;3.38;;
23506;SDS011;11930;53.076;18.250;2022-10-12T10:10:03;10.80;;;3.30;;
23506;SDS011;11930;53.076;18.250;2022-10-12T10:15:29;19.08;;;5.45;;
23506;SDS011;11930;53.076;18.250;2022-10-12T10:18:04;11.50;;;4.68;;
23506;SDS011;11930;53.076;18.250;2022-10-12T10:21:04;16.90;;;8.73;;
23506;SDS011;11930;53.076;18.250;2022-10-12T10:23:35;9.68;;;6.40;;
23506;SDS011;11930;53.076;18.250;2022-10-12T10:26:10;6.50;;;2.22;;
23506;SDS011;11930;53.076;18.250;2022-10-12T10:28:39;6.43;;;2.63;;
23506;SDS011;11930;53.076;18.250;2022-10-12T10:36:51;15.35;;;7.82;;
23506;SDS011;11930;53.076;18.250;2022-10-12T10:45:01;10.45;;;3.72;;
23506;SDS011;11930;53.076;18.250;2022-10-12T10:47:31;8.90;;;3.45;;
23506;SDS011;11930;53.076;18.250;2022-10-12T10:50:02;9.70;;;3.17;;
23506;SDS011;11930;53.076;18.250;2022-10-12T10:52:33;8.32;;;2.83;;
23506;SDS011;11930;53.076;18.250;2022-10-12T10:55:05;14.70;;;6.88;;
23506;SDS011;11930;53.076;18.250;2022-10-12T10:57:43;8.50;;;3.10;;
23506;SDS011;11930;53.076;18.250;2022-10-12T11:00:15;13.73;;;6.38;;
23506;SDS011;11930;53.076;18.250;2022-10-12T11:02:51;10.02;;;3.97;;
23506;SDS011;11930;53.076;18.250;2022-10-12T11:05:26;9.32;;;3.35;;
23506;SDS011;11930;53.076;18.250;2022-10-12T11:08:03;8.63;;;3.10;;
23506;SDS011;11930;53.076;18.250;2022-10-12T11:10:44;11.00;;;4.20;;
23506;SDS011;11930;53.076;18.250;2022-10-12T11:13:22;10.00;;;3.70;;
23506;SDS011;11930;53.076;18.250;2022-10-12T11:15:53;12.52;;;5.53;;
23506;SDS011;11930;53.076;18.250;2022-10-12T11:18:44;31.27;;;19.20;;
23506;SDS011;11930;53.076;18.250;2022-10-12T11:21:11;18.02;;;6.45;;
23506;SDS011;11930;53.076;18.250;2022-10-12T11:29:28;11.10;;;4.07;;
23506;SDS011;11930;53.076;18.250;2022-10-12T11:31:57;14.68;;;7.50;;
23506;SDS011;11930;53.076;18.250;2022-10-12T11:34:29;16.65;;;3.15;;
23506;SDS011;11930;53.076;18.250;2022-10-12T11:37:03;8.98;;;1.80;;
23506;SDS011;11930;53.076;18.250;2022-10-12T11:39:41;9.05;;;2.33;;
23506;SDS011;11930;53.076;18.250;2022-10-12T11:42:12;9.80;;;2.22;;
23506;SDS011;11930;53.076;18.250;2022-10-12T11:44:43;7.70;;;3.60;;
23506;SDS011;11930;53.076;18.250;2022-10-12T11:47:14;21.83;;;13.02;;
23506;SDS011;11930;53.076;18.250;2022-10-12T11:52:45;27.15;;;18.92;;
23506;SDS011;11930;53.076;18.250;2022-10-12T11:58:05;11.18;;;3.97;;
23506;SDS011;11930;53.076;18.250;2022-10-12T12:06:46;8.10;;;3.25;;
23506;SDS011;11930;53.076;18.250;2022-10-12T12:09:18;7.32;;;2.80;;
23506;SDS011;11930;53.076;18.250;2022-10-12T12:11:47;9.05;;;2.33;;
23506;SDS011;11930;53.076;18.250;2022-10-12T12:25:02;10.73;;;2.38;;
23506;SDS011;11930;53.076;18.250;2022-10-12T12:27:48;9.93;;;2.47;;
23506;SDS011;11930;53.076;18.250;2022-10-12T12:33:05;7.90;;;2.03;;
23506;SDS011;11930;53.076;18.250;2022-10-12T12:35:52;9.57;;;2.03;;
23506;SDS011;11930;53.076;18.250;2022-10-12T12:38:32;11.52;;;2.28;;
23506;SDS011;11930;53.076;18.250;2022-10-12T12:51:04;8.90;;;2.13;;
23506;SDS011;11930;53.076;18.250;2022-10-12T12:54:17;10.30;;;2.50;;
23506;SDS011;11930;53.076;18.250;2022-10-12T13:07:54;15.18;;;2.40;;
23506;SDS011;11930;53.076;18.250;2022-10-12T13:13:35;9.98;;;2.50;;
23506;SDS011;11930;53.076;18.250;2022-10-12T13:16:24;10.10;;;3.13;;
23506;SDS011;11930;53.076;18.250;2022-10-12T13:19:08;8.98;;;2.22;;
23506;SDS011;11930;53.076;18.250;2022-10-12T13:21:40;7.88;;;2.92;;
23506;SDS011;11930;53.076;18.250;2022-10-12T13:24:26;14.10;;;2.53;;
23506;SDS011;11930;53.076;18.250;2022-10-12T13:27:14;9.40;;;2.00;;
23506;SDS011;11930;53.076;18.250;2022-10-12T13:29:48;5.28;;;1.92;;
23506;SDS011;11930;53.076;18.250;2022-10-12T13:34:55;82.68;;;50.13;;
23506;SDS011;11930;53.076;18.250;2022-10-12T13:37:30;17.23;;;11.93;;
23506;SDS011;11930;53.076;18.250;2022-10-12T13:39:57;13.38;;;7.15;;
23506;SDS011;11930;53.076;18.250;2022-10-12T13:42:30;14.68;;;5.40;;
23506;SDS011;11930;53.076;18.250;2022-10-12T13:44:59;9.57;;;2.40;;
23506;SDS011;11930;53.076;18.250;2022-10-12T13:47:32;12.85;;;4.45;;
23506;SDS011;11930;53.076;18.250;2022-10-12T13:50:00;18.05;;;4.47;;
23506;SDS011;11930;53.076;18.250;2022-10-12T13:52:31;10.70;;;5.15;;
23506;SDS011;11930;53.076;18.250;2022-10-12T13:54:58;15.23;;;7.93;;
23506;SDS011;11930;53.076;18.250;2022-10-12T13:57:34;10.25;;;5.95;;
23506;SDS011;11930;53.076;18.250;2022-10-12T14:00:15;10.88;;;5.38;;
23506;SDS011;11930;53.076;18.250;2022-10-12T14:02:57;77.03;;;49.97;;
23506;SDS011;11930;53.076;18.250;2022-10-12T14:05:27;29.85;;;10.80;;
23506;SDS011;11930;53.076;18.250;2022-10-12T14:08:02;33.25;;;19.48;;
23506;SDS011;11930;53.076;18.250;2022-10-12T14:10:35;13.05;;;5.28;;
23506;SDS011;11930;53.076;18.250;2022-10-12T14:13:02;23.90;;;6.05;;
23506;SDS011;11930;53.076;18.250;2022-10-12T14:15:34;14.60;;;6.47;;
23506;SDS011;11930;53.076;18.250;2022-10-12T14:18:03;10.70;;;5.07;;
23506;SDS011;11930;53.076;18.250;2022-10-12T14:20:31;6.75;;;3.05;;
23506;SDS011;11930;53.076;18.250;2022-10-12T14:23:02;8.25;;;4.00;;
23506;SDS011;11930;53.076;18.250;2022-10-12T14:25:50;6.38;;;2.70;;
23506;SDS011;11930;53.076;18.250;2022-10-12T14:28:27;6.95;;;2.50;;
23506;SDS011;11930;53.076;18.250;2022-10-12T14:30:57;15.18;;;4.60;;
23506;SDS011;11930;53.076;18.250;2022-10-12T14:33:24;12.83;;;3.90;;
23506;SDS011;11930;53.076;18.250;2022-10-12T14:36:13;21.30;;;6.40;;
23506;SDS011;11930;53.076;18.250;2022-10-12T14:38:55;28.75;;;8.50;;
23506;SDS011;11930;53.076;18.250;2022-10-12T14:41:42;18.95;;;6.63;;
23506;SDS011;11930;53.076;18.250;2022-10-12T14:44:14;22.67;;;8.20;;
23506;SDS011;11930;53.076;18.250;2022-10-12T14:46:52;27.23;;;14.63;;
23506;SDS011;11930;53.076;18.250;2022-10-12T14:52:06;62.80;;;33.58;;
23506;SDS011;11930;53.076;18.250;2022-10-12T14:54:39;21.70;;;11.37;;
23506;SDS011;11930;53.076;18.250;2022-10-12T14:57:10;49.25;;;28.67;;
23506;SDS011;11930;53.076;18.250;2022-10-12T14:59:43;86.53;;;51.80;;
23506;SDS011;11930;53.076;18.250;2022-10-12T15:02:12;70.13;;;38.70;;
23506;SDS011;11930;53.076;18.250;2022-10-12T15:04:43;146.05;;;80.35;;
23506;SDS011;11930;53.076;18.250;2022-10-12T15:07:11;92.03;;;50.70;;
23506;SDS011;11930;53.076;18.250;2022-10-12T15:09:46;124.07;;;63.33;;
23506;SDS011;11930;53.076;18.250;2022-10-12T15:12:14;91.53;;;46.47;;
23506;SDS011;11930;53.076;18.250;2022-10-12T15:14:47;91.47;;;45.90;;
23506;SDS011;11930;53.076;18.250;2022-10-12T15:17:14;67.43;;;33.55;;
23506;SDS011;11930;53.076;18.250;2022-10-12T15:19:42;54.67;;;27.85;;
23506;SDS011;11930;53.076;18.250;2022-10-12T15:22:13;57.28;;;28.38;;
23506;SDS011;11930;53.076;18.250;2022-10-12T15:24:44;54.67;;;29.27;;
23506;SDS011;11930;53.076;18.250;2022-10-12T15:27:11;25.70;;;13.73;;
23506;SDS011;11930;53.076;18.250;2022-10-12T15:29:46;20.40;;;10.67;;
23506;SDS011;11930;53.076;18.250;2022-10-12T15:32:16;21.17;;;9.03;;
23506;SDS011;11930;53.076;18.250;2022-10-12T15:34:44;20.20;;;9.37;;
23506;SDS011;11930;53.076;18.250;2022-10-12T15:37:17;25.40;;;11.47;;
23506;SDS011;11930;53.076;18.250;2022-10-12T15:40:10;20.17;;;8.83;;
23506;SDS011;11930;53.076;18.250;2022-10-12T15:42:39;24.57;;;9.47;;
23506;SDS011;11930;53.076;18.250;2022-10-12T15:45:31;22.63;;;11.40;;
23506;SDS011;11930;53.076;18.250;2022-10-12T15:47:59;30.00;;;13.47;;
23506;SDS011;11930;53.076;18.250;2022-10-12T15:50:34;21.37;;;9.83;;
23506;SDS011;11930;53.076;18.250;2022-10-12T15:53:44;19.80;;;9.37;;
23506;SDS011;11930;53.076;18.250;2022-10-12T15:56:15;21.03;;;8.87;;
23506;SDS011;11930;53.076;18.250;2022-10-12T15:58:46;19.83;;;7.40;;
23506;SDS011;11930;53.076;18.250;2022-10-12T16:01:17;22.27;;;9.57;;
23506;SDS011;11930;53.076;18.250;2022-10-12T16:03:58;19.53;;;8.07;;
23506;SDS011;11930;53.076;18.250;2022-10-12T16:06:25;20.33;;;9.50;;
23506;SDS011;11930;53.076;18.250;2022-10-12T16:09:01;28.83;;;11.60;;
23506;SDS011;11930;53.076;18.250;2022-10-12T16:11:43;23.43;;;10.17;;
23506;SDS011;11930;53.076;18.250;2022-10-12T16:14:11;24.13;;;9.37;;
23506;SDS011;11930;53.076;18.250;2022-10-12T16:16:38;18.70;;;6.73;;
23506;SDS011;11930;53.076;18.250;2022-10-12T16:19:04;21.73;;;6.30;;
23506;SDS011;11930;53.076;18.250;2022-10-12T16:21:31;22.63;;;6.37;;
23506;SDS011;11930;53.076;18.250;2022-10-12T16:23:57;17.90;;;5.73;;
23506;SDS011;11930;53.076;18.250;2022-10-12T16:26:23;22.83;;;6.00;;
23506;SDS011;11930;53.076;18.250;2022-10-12T16:28:49;18.77;;;5.57;;
23506;SDS011;11930;53.076;18.250;2022-10-12T16:31:15;14.63;;;4.93;;
23506;SDS011;11930;53.076;18.250;2022-10-12T16:33:42;15.60;;;5.83;;
23506;SDS011;11930;53.076;18.250;2022-10-12T16:36:10;17.17;;;5.80;;